createdAt,value
2024-02-10T00:00:16.701Z,19.74
2024-02-10T00:00:37.293Z,19.79
2024-02-10T00:00:57.937Z,19.76
2024-02-10T00:01:18.615Z,19.77
2024-02-10T00:01:39.298Z,19.74
2024-02-10T00:02:00.003Z,19.73
2024-02-10T00:02:20.672Z,19.74
2024-02-10T00:02:41.274Z,19.74
2024-02-10T00:03:01.895Z,19.76
2024-02-10T00:03:22.520Z,19.76
2024-02-10T00:03:43.127Z,19.74
2024-02-10T00:04:03.758Z,19.76
2024-02-10T00:04:24.434Z,19.77
2024-02-10T00:04:45.235Z,19.76
2024-02-10T00:05:06.093Z,19.77
2024-02-10T00:05:26.810Z,19.74
2024-02-10T00:05:47.499Z,19.76
2024-02-10T00:06:08.167Z,19.73
2024-02-10T00:06:28.792Z,19.76
2024-02-10T00:06:49.444Z,19.74
2024-02-10T00:07:10.110Z,19.79
2024-02-10T00:07:30.755Z,19.76
2024-02-10T00:07:51.411Z,19.77
2024-02-10T00:08:12.042Z,19.73
2024-02-10T00:08:32.742Z,19.76
2024-02-10T00:08:53.334Z,19.74
2024-02-10T00:09:14.006Z,19.76
2024-02-10T00:09:34.659Z,19.76
2024-02-10T00:09:55.286Z,19.73
2024-02-10T00:10:15.971Z,19.77
2024-02-10T00:10:36.657Z,19.74
2024-02-10T00:10:57.322Z,19.71
2024-02-10T00:11:17.942Z,19.79
2024-02-10T00:11:38.569Z,19.70
2024-02-10T00:11:59.179Z,19.74
2024-02-10T00:12:19.845Z,19.82
2024-02-10T00:12:40.452Z,19.74
2024-02-10T00:13:01.744Z,19.74
2024-02-10T00:13:22.023Z,19.74
2024-02-10T00:13:42.704Z,19.74
2024-02-10T00:14:03.468Z,19.77
2024-02-10T00:14:24.095Z,19.77
2024-02-10T00:14:44.720Z,19.77
2024-02-10T00:15:05.326Z,19.74
2024-02-10T00:15:25.942Z,19.73
2024-02-10T00:15:46.537Z,19.76
2024-02-10T00:16:07.157Z,19.76
2024-02-10T00:16:27.796Z,19.71
2024-02-10T00:16:48.482Z,19.79
2024-02-10T00:17:09.106Z,19.76
2024-02-10T00:17:29.739Z,19.77
2024-02-10T00:17:50.384Z,19.76
2024-02-10T00:18:11.107Z,19.74
2024-02-10T00:18:31.752Z,19.73
2024-02-10T00:18:52.370Z,19.74
2024-02-10T00:19:13.128Z,19.77
2024-02-10T00:19:33.779Z,19.73
2024-02-10T00:19:54.419Z,19.77
2024-02-10T00:20:15.001Z,19.76
2024-02-10T00:20:35.626Z,19.79
2024-02-10T00:20:56.242Z,19.77
2024-02-10T00:21:16.838Z,19.73
2024-02-10T00:21:37.462Z,19.79
2024-02-10T00:21:58.145Z,19.74
2024-02-10T00:22:18.985Z,19.73
2024-02-10T00:22:39.716Z,19.73
2024-02-10T00:23:00.386Z,19.71
2024-02-10T00:23:20.905Z,19.76
2024-02-10T00:23:41.511Z,19.73
2024-02-10T00:24:02.120Z,19.71
2024-02-10T00:24:22.748Z,19.76
2024-02-10T00:24:43.352Z,19.73
2024-02-10T00:25:03.977Z,19.76
2024-02-10T00:25:24.603Z,19.73
2024-02-10T00:25:45.218Z,19.73
2024-02-10T00:26:06.277Z,19.76
2024-02-10T00:26:26.462Z,19.74
2024-02-10T00:26:47.206Z,19.74
2024-02-10T00:27:07.952Z,19.74
2024-02-10T00:27:28.839Z,19.77
2024-02-10T00:27:49.451Z,19.76
2024-02-10T00:28:10.131Z,19.73
2024-02-10T00:28:30.781Z,19.77
2024-02-10T00:28:51.592Z,19.74
2024-02-10T00:29:12.214Z,19.74
2024-02-10T00:29:34.919Z,19.76
2024-02-10T00:29:53.399Z,19.76
2024-02-10T00:30:14.010Z,19.74
2024-02-10T00:30:34.618Z,19.79
2024-02-10T00:30:55.223Z,19.74
2024-02-10T00:31:15.851Z,19.70
2024-02-10T00:31:36.516Z,19.77
2024-02-10T00:31:57.145Z,19.79
2024-02-10T00:32:17.751Z,19.74
2024-02-10T00:32:38.381Z,19.74
2024-02-10T00:32:59.037Z,19.74
2024-02-10T00:33:19.793Z,19.77
2024-02-10T00:33:40.510Z,19.76
2024-02-10T00:34:01.302Z,19.73
2024-02-10T00:34:22.071Z,19.70
2024-02-10T00:34:43.029Z,19.73
2024-02-10T00:35:03.410Z,19.71
2024-02-10T00:35:24.772Z,19.76
2024-02-10T00:35:44.617Z,19.71
2024-02-10T00:36:05.249Z,19.73
2024-02-10T00:36:25.863Z,19.74
2024-02-10T00:36:46.473Z,19.77
2024-02-10T00:37:07.096Z,19.74
2024-02-10T00:37:27.730Z,19.76
2024-02-10T00:37:48.393Z,19.74
2024-02-10T00:38:08.968Z,19.74
2024-02-10T00:38:29.595Z,19.73
2024-02-10T00:38:50.227Z,19.73
2024-02-10T00:39:10.819Z,19.74
2024-02-10T00:39:31.421Z,19.77
2024-02-10T00:39:52.027Z,19.74
2024-02-10T00:40:12.680Z,19.71
2024-02-10T00:40:33.320Z,19.73
2024-02-10T00:40:54.055Z,19.73
2024-02-10T00:41:14.690Z,19.73
2024-02-10T00:41:35.331Z,19.77
2024-02-10T00:41:55.940Z,19.71
2024-02-10T00:42:16.554Z,19.76
2024-02-10T00:42:37.167Z,19.76
2024-02-10T00:42:57.808Z,19.74
2024-02-10T00:43:18.444Z,19.74
2024-02-10T00:43:39.079Z,19.74
2024-02-10T00:43:59.742Z,19.74
2024-02-10T00:44:20.333Z,19.71
2024-02-10T00:44:40.947Z,19.74
2024-02-10T00:45:01.554Z,19.73
2024-02-10T00:45:22.164Z,19.70
2024-02-10T00:45:42.787Z,19.73
2024-02-10T00:46:03.410Z,19.71
2024-02-10T00:46:24.088Z,19.73
2024-02-10T00:46:44.773Z,19.71
2024-02-10T00:47:05.427Z,19.70
2024-02-10T00:47:26.044Z,19.71
2024-02-10T00:47:46.698Z,19.74
2024-02-10T00:48:07.394Z,19.71
2024-02-10T00:48:28.078Z,19.70
2024-02-10T00:48:48.914Z,19.69
2024-02-10T00:49:09.325Z,19.70
2024-02-10T00:49:29.989Z,19.76
2024-02-10T00:49:50.623Z,19.69
2024-02-10T00:50:11.211Z,19.71
2024-02-10T00:50:31.848Z,19.69
2024-02-10T00:50:52.442Z,19.76
2024-02-10T00:51:13.067Z,19.74
2024-02-10T00:51:33.679Z,19.74
2024-02-10T00:51:54.291Z,19.74
2024-02-10T00:52:14.924Z,19.73
2024-02-10T00:52:35.637Z,19.71
2024-02-10T00:52:56.242Z,19.71
2024-02-10T00:53:16.861Z,19.73
2024-02-10T00:53:37.527Z,19.76
2024-02-10T00:53:58.110Z,19.76
2024-02-10T00:54:18.729Z,19.71
2024-02-10T00:54:39.339Z,19.71
2024-02-10T00:54:59.946Z,19.71
2024-02-10T00:55:20.558Z,19.74
2024-02-10T00:55:41.222Z,19.69
2024-02-10T00:56:01.863Z,19.74
2024-02-10T00:56:22.469Z,19.74
2024-02-10T00:56:43.086Z,19.70
2024-02-10T00:57:03.699Z,19.69
2024-02-10T00:57:24.312Z,19.77
2024-02-10T00:57:44.926Z,19.73
2024-02-10T00:58:05.872Z,19.70
2024-02-10T00:58:26.233Z,19.71
2024-02-10T00:58:47.048Z,19.70
2024-02-10T00:59:07.662Z,19.71
2024-02-10T00:59:28.274Z,19.74
2024-02-10T00:59:48.903Z,19.73
2024-02-10T01:00:09.519Z,19.70
2024-02-10T01:00:30.127Z,19.71
2024-02-10T01:00:50.810Z,19.70
2024-02-10T01:01:11.470Z,19.70
2024-02-10T01:01:32.130Z,19.73
2024-02-10T01:01:52.785Z,19.77
2024-02-10T01:02:13.400Z,19.74
2024-02-10T01:02:33.992Z,19.73
2024-02-10T01:02:54.601Z,19.73
2024-02-10T01:03:15.250Z,19.71
2024-02-10T01:03:35.897Z,19.73
2024-02-10T01:03:56.561Z,19.69
2024-02-10T01:04:17.207Z,19.71
2024-02-10T01:04:37.928Z,19.71
2024-02-10T01:04:58.566Z,19.74
2024-02-10T01:05:19.233Z,19.73
2024-02-10T01:05:40.069Z,19.70
2024-02-10T01:06:00.916Z,19.70
2024-02-10T01:06:21.747Z,19.71
2024-02-10T01:06:42.444Z,19.70
2024-02-10T01:07:03.066Z,19.74
2024-02-10T01:07:23.741Z,19.70
2024-02-10T01:07:44.382Z,19.74
2024-02-10T01:08:04.981Z,19.67
2024-02-10T01:08:25.585Z,19.71
2024-02-10T01:08:46.231Z,19.71
2024-02-10T01:09:06.818Z,19.71
2024-02-10T01:09:27.435Z,19.73
2024-02-10T01:09:48.321Z,19.71
2024-02-10T01:10:08.962Z,19.73
2024-02-10T01:10:29.557Z,19.67
2024-02-10T01:10:50.225Z,19.70
2024-02-10T01:11:10.836Z,19.69
2024-02-10T01:11:31.448Z,19.70
2024-02-10T01:11:52.103Z,19.67
2024-02-10T01:12:12.707Z,19.70
2024-02-10T01:12:33.212Z,19.71
2024-02-10T01:12:53.821Z,19.71
2024-02-10T01:13:14.451Z,19.71
2024-02-10T01:13:35.074Z,19.71
2024-02-10T01:13:55.709Z,19.70
2024-02-10T01:14:16.328Z,19.71
2024-02-10T01:14:36.949Z,19.69
2024-02-10T01:14:57.565Z,19.71
2024-02-10T01:15:18.211Z,19.73
2024-02-10T01:15:38.815Z,19.73
2024-02-10T01:15:59.438Z,19.69
2024-02-10T01:16:20.437Z,19.73
2024-02-10T01:16:40.691Z,19.71
2024-02-10T01:17:01.334Z,19.70
2024-02-10T01:17:21.906Z,19.69
2024-02-10T01:17:42.556Z,19.70
2024-02-10T01:18:03.255Z,19.70
2024-02-10T01:18:24.022Z,19.71
2024-02-10T01:18:44.712Z,19.70
2024-02-10T01:19:05.460Z,19.67
2024-02-10T01:19:26.101Z,19.70
2024-02-10T01:19:46.759Z,19.73
2024-02-10T01:20:07.441Z,19.71
2024-02-10T01:20:28.025Z,19.76
2024-02-10T01:20:48.661Z,19.74
2024-02-10T01:21:09.254Z,19.70
2024-02-10T01:21:30.231Z,19.67
2024-02-10T01:21:50.843Z,19.73
2024-02-10T01:22:11.490Z,19.71
2024-02-10T01:22:32.142Z,19.66
2024-02-10T01:22:52.842Z,19.69
2024-02-10T01:23:13.449Z,19.71
2024-02-10T01:23:34.061Z,19.70
2024-02-10T01:23:54.686Z,19.73
2024-02-10T01:24:15.318Z,19.69
2024-02-10T01:24:35.933Z,19.71
2024-02-10T01:24:56.531Z,19.71
2024-02-10T01:25:17.238Z,19.71
2024-02-10T01:25:37.889Z,19.73
2024-02-10T01:25:58.606Z,19.71
2024-02-10T01:26:20.011Z,19.70
2024-02-10T01:26:40.229Z,19.71
2024-02-10T01:27:00.839Z,19.73
2024-02-10T01:27:21.453Z,19.66
2024-02-10T01:27:42.058Z,19.70
2024-02-10T01:28:03.103Z,19.71
2024-02-10T01:28:23.295Z,19.69
2024-02-10T01:28:43.911Z,19.69
2024-02-10T01:29:04.578Z,19.69
2024-02-10T01:29:25.169Z,19.70
2024-02-10T01:29:45.797Z,19.69
2024-02-10T01:30:06.416Z,19.69
2024-02-10T01:30:27.019Z,19.73
2024-02-10T01:30:47.618Z,19.70
2024-02-10T01:31:08.235Z,19.69
2024-02-10T01:31:28.897Z,19.70
2024-02-10T01:31:49.581Z,19.71
2024-02-10T01:32:10.206Z,19.69
2024-02-10T01:32:30.809Z,19.70
2024-02-10T01:32:51.470Z,19.71
2024-02-10T01:33:12.154Z,19.71
2024-02-10T01:33:32.855Z,19.73
2024-02-10T01:33:53.512Z,19.70
2024-02-10T01:34:14.242Z,19.67
2024-02-10T01:34:34.945Z,19.67
2024-02-10T01:34:55.904Z,19.67
2024-02-10T01:35:16.152Z,19.70
2024-02-10T01:35:36.762Z,19.71
2024-02-10T01:35:57.363Z,19.67
2024-02-10T01:36:17.976Z,19.69
2024-02-10T01:36:38.600Z,19.70
2024-02-10T01:36:59.202Z,19.69
2024-02-10T01:37:19.815Z,19.71
2024-02-10T01:37:40.646Z,19.71
2024-02-10T01:38:01.330Z,19.70
2024-02-10T01:38:21.959Z,19.70
2024-02-10T01:38:42.556Z,19.67
2024-02-10T01:39:03.191Z,19.70
2024-02-10T01:39:23.809Z,19.69
2024-02-10T01:39:44.424Z,19.73
2024-02-10T01:40:05.028Z,19.70
2024-02-10T01:40:25.681Z,19.69
2024-02-10T01:40:46.306Z,19.69
2024-02-10T01:41:06.911Z,19.73
2024-02-10T01:41:27.508Z,19.70
2024-02-10T01:41:48.111Z,19.67
2024-02-10T01:42:08.777Z,19.69
2024-02-10T01:42:29.420Z,19.70
2024-02-10T01:42:50.094Z,19.70
2024-02-10T01:43:10.683Z,19.73
2024-02-10T01:43:31.337Z,19.70
2024-02-10T01:43:52.040Z,19.70
2024-02-10T01:44:12.692Z,19.69
2024-02-10T01:44:33.307Z,19.71
2024-02-10T01:44:53.928Z,19.70
2024-02-10T01:45:14.586Z,19.74
2024-02-10T01:45:35.245Z,19.70
2024-02-10T01:45:55.856Z,19.71
2024-02-10T01:46:16.518Z,19.70
2024-02-10T01:46:37.190Z,19.66
2024-02-10T01:46:57.794Z,19.71
2024-02-10T01:47:18.393Z,19.69
2024-02-10T01:47:39.053Z,19.70
2024-02-10T01:47:59.730Z,19.73
2024-02-10T01:48:20.438Z,19.70
2024-02-10T01:48:41.069Z,19.70
2024-02-10T01:49:01.748Z,19.67
2024-02-10T01:49:22.417Z,19.70
2024-02-10T01:49:43.324Z,19.69
2024-02-10T01:50:04.116Z,19.66
2024-02-10T01:50:24.824Z,19.66
2024-02-10T01:50:45.744Z,19.66
2024-02-10T01:51:06.489Z,19.70
2024-02-10T01:51:27.113Z,19.71
2024-02-10T01:51:47.730Z,19.70
2024-02-10T01:52:08.348Z,19.69
2024-02-10T01:52:28.988Z,19.73
2024-02-10T01:52:49.689Z,19.70
2024-02-10T01:53:10.335Z,19.69
2024-02-10T01:53:30.941Z,19.67
2024-02-10T01:53:51.598Z,19.70
2024-02-10T01:54:12.212Z,19.66
2024-02-10T01:54:32.826Z,19.64
2024-02-10T01:54:53.456Z,19.69
2024-02-10T01:55:14.094Z,19.66
2024-02-10T01:55:34.721Z,19.67
2024-02-10T01:55:55.373Z,19.67
2024-02-10T01:56:16.010Z,19.70
2024-02-10T01:56:36.627Z,19.71
2024-02-10T01:56:57.238Z,19.70
2024-02-10T01:57:17.851Z,19.67
2024-02-10T01:57:38.527Z,19.69
2024-02-10T01:57:59.126Z,19.71
2024-02-10T01:58:19.766Z,19.67
2024-02-10T01:58:40.405Z,19.69
2024-02-10T01:59:00.990Z,19.71
2024-02-10T01:59:21.628Z,19.69
2024-02-10T01:59:42.226Z,19.69
2024-02-10T02:00:02.839Z,19.71
2024-02-10T02:00:23.476Z,19.69
2024-02-10T02:00:44.142Z,19.66
2024-02-10T02:01:04.861Z,19.64
2024-02-10T02:01:25.478Z,19.69
2024-02-10T02:01:46.173Z,19.67
2024-02-10T02:02:06.783Z,19.69
2024-02-10T02:02:27.399Z,19.66
2024-02-10T02:02:48.000Z,19.66
2024-02-10T02:03:08.666Z,19.71
2024-02-10T02:03:29.298Z,19.69
2024-02-10T02:03:50.006Z,19.66
2024-02-10T02:04:10.659Z,19.67
2024-02-10T02:04:31.367Z,19.67
2024-02-10T02:04:51.980Z,19.69
2024-02-10T02:05:12.628Z,19.69
2024-02-10T02:05:33.304Z,19.66
2024-02-10T02:05:53.954Z,19.67
2024-02-10T02:06:14.531Z,19.69
2024-02-10T02:06:35.138Z,19.64
2024-02-10T02:06:55.763Z,19.66
2024-02-10T02:07:16.417Z,19.66
2024-02-10T02:07:37.030Z,19.69
2024-02-10T02:07:57.681Z,19.64
2024-02-10T02:08:18.270Z,19.71
2024-02-10T02:08:38.890Z,19.69
2024-02-10T02:08:59.513Z,19.67
2024-02-10T02:09:20.130Z,19.66
2024-02-10T02:09:40.749Z,19.63
2024-02-10T02:10:01.616Z,19.67
2024-02-10T02:10:21.982Z,19.67
2024-02-10T02:10:42.636Z,19.67
2024-02-10T02:11:03.247Z,19.66
2024-02-10T02:11:23.889Z,19.67
2024-02-10T02:11:44.470Z,19.66
2024-02-10T02:12:05.087Z,19.69
2024-02-10T02:12:25.701Z,19.67
2024-02-10T02:12:46.294Z,19.67
2024-02-10T02:13:06.910Z,19.71
2024-02-10T02:13:27.523Z,19.66
2024-02-10T02:13:48.206Z,19.62
2024-02-10T02:14:08.855Z,19.67
2024-02-10T02:14:29.479Z,19.64
2024-02-10T02:14:50.097Z,19.64
2024-02-10T02:15:10.702Z,19.64
2024-02-10T02:15:31.335Z,19.67
2024-02-10T02:15:51.979Z,19.63
2024-02-10T02:16:12.621Z,19.69
2024-02-10T02:16:33.247Z,19.69
2024-02-10T02:16:53.881Z,19.64
2024-02-10T02:17:14.486Z,19.63
2024-02-10T02:17:35.097Z,19.69
2024-02-10T02:17:55.713Z,19.66
2024-02-10T02:18:16.360Z,19.63
2024-02-10T02:18:37.018Z,19.67
2024-02-10T02:18:57.677Z,19.64
2024-02-10T02:19:18.352Z,19.66
2024-02-10T02:19:39.041Z,19.66
2024-02-10T02:19:59.622Z,19.63
2024-02-10T02:20:20.237Z,19.66
2024-02-10T02:20:40.852Z,19.66
2024-02-10T02:21:01.461Z,19.69
2024-02-10T02:21:22.068Z,19.66
2024-02-10T02:21:42.684Z,19.66
2024-02-10T02:22:03.296Z,19.67
2024-02-10T02:22:23.916Z,19.66
2024-02-10T02:22:44.552Z,19.64
2024-02-10T02:23:05.188Z,19.66
2024-02-10T02:23:25.790Z,19.66
2024-02-10T02:23:46.399Z,19.63
2024-02-10T02:24:07.015Z,19.64
2024-02-10T02:24:27.635Z,19.67
2024-02-10T02:24:48.600Z,19.67
2024-02-10T02:25:09.021Z,19.67
2024-02-10T02:25:29.697Z,19.69
2024-02-10T02:25:50.359Z,19.67
2024-02-10T02:26:10.968Z,19.70
2024-02-10T02:26:31.603Z,19.63
2024-02-10T02:26:52.201Z,19.63
2024-02-10T02:27:12.801Z,19.67
2024-02-10T02:27:33.418Z,19.64
2024-02-10T02:27:54.055Z,19.64
2024-02-10T02:28:14.666Z,19.64
2024-02-10T02:28:35.311Z,19.69
2024-02-10T02:28:55.938Z,19.62
2024-02-10T02:29:16.556Z,19.64
2024-02-10T02:29:37.175Z,19.64
2024-02-10T02:29:57.777Z,19.64
2024-02-10T02:30:18.421Z,19.66
2024-02-10T02:30:40.685Z,19.63
2024-02-10T02:30:59.966Z,19.67
2024-02-10T02:31:20.590Z,19.66
2024-02-10T02:31:41.272Z,19.62
2024-02-10T02:32:01.891Z,19.67
2024-02-10T02:32:22.521Z,19.69
2024-02-10T02:32:43.150Z,19.59
2024-02-10T02:33:03.805Z,19.63
2024-02-10T02:33:24.399Z,19.66
2024-02-10T02:33:45.013Z,19.66
2024-02-10T02:34:05.675Z,19.64
2024-02-10T02:34:26.389Z,19.66
2024-02-10T02:34:47.158Z,19.63
2024-02-10T02:35:07.877Z,19.63
2024-02-10T02:35:28.634Z,19.64
2024-02-10T02:35:49.301Z,19.67
2024-02-10T02:36:09.937Z,19.67
2024-02-10T02:36:30.529Z,19.66
2024-02-10T02:36:51.147Z,19.66
2024-02-10T02:37:11.837Z,19.62
2024-02-10T02:37:32.468Z,19.63
2024-02-10T02:37:53.077Z,19.69
2024-02-10T02:38:13.707Z,19.62
2024-02-10T02:38:34.319Z,19.63
2024-02-10T02:38:54.933Z,19.62
2024-02-10T02:39:15.574Z,19.63
2024-02-10T02:39:36.192Z,19.63
2024-02-10T02:39:56.814Z,19.67
2024-02-10T02:40:17.728Z,19.64
2024-02-10T02:40:38.470Z,19.64
2024-02-10T02:40:59.235Z,19.59
2024-02-10T02:41:19.912Z,19.66
2024-02-10T02:41:40.524Z,19.64
2024-02-10T02:42:01.229Z,19.63
2024-02-10T02:42:21.842Z,19.64
2024-02-10T02:42:42.454Z,19.66
2024-02-10T02:43:03.075Z,19.64
2024-02-10T02:43:23.767Z,19.66
2024-02-10T02:43:44.366Z,19.59
2024-02-10T02:44:04.978Z,19.67
2024-02-10T02:44:25.587Z,19.63
2024-02-10T02:44:46.217Z,19.63
2024-02-10T02:45:06.833Z,19.64
2024-02-10T02:45:27.442Z,19.62
2024-02-10T02:45:48.041Z,19.63
2024-02-10T02:46:12.331Z,19.62
2024-02-10T02:46:29.206Z,19.66
2024-02-10T02:46:49.857Z,19.66
2024-02-10T02:47:10.473Z,19.62
2024-02-10T02:47:31.092Z,19.67
2024-02-10T02:47:51.783Z,19.63
2024-02-10T02:48:12.812Z,19.66
2024-02-10T02:48:33.048Z,19.62
2024-02-10T02:48:53.702Z,19.64
2024-02-10T02:49:14.279Z,19.62
2024-02-10T02:49:35.148Z,19.62
2024-02-10T02:49:55.979Z,19.63
2024-02-10T02:50:16.799Z,19.66
2024-02-10T02:50:37.442Z,19.59
2024-02-10T02:50:58.041Z,19.63
2024-02-10T02:51:18.644Z,19.63
2024-02-10T02:51:39.257Z,19.64
2024-02-10T02:51:59.884Z,19.63
2024-02-10T02:52:20.532Z,19.64
2024-02-10T02:52:41.164Z,19.64
2024-02-10T02:53:01.812Z,19.62
2024-02-10T02:53:22.436Z,19.64
2024-02-10T02:53:43.054Z,19.63
2024-02-10T02:54:03.674Z,19.66
2024-02-10T02:54:24.280Z,19.63
2024-02-10T02:54:44.892Z,19.62
2024-02-10T02:55:05.507Z,19.62
2024-02-10T02:55:26.217Z,19.63
2024-02-10T02:55:47.680Z,19.62
2024-02-10T02:56:07.557Z,19.62
2024-02-10T02:56:28.167Z,19.59
2024-02-10T02:56:48.793Z,19.62
2024-02-10T02:57:09.408Z,19.64
2024-02-10T02:57:30.038Z,19.66
2024-02-10T02:57:50.633Z,19.64
2024-02-10T02:58:11.243Z,19.63
2024-02-10T02:58:31.889Z,19.67
2024-02-10T02:58:52.770Z,19.64
2024-02-10T02:59:13.059Z,19.63
2024-02-10T02:59:33.664Z,19.64
2024-02-10T02:59:54.301Z,19.62
2024-02-10T03:00:14.905Z,19.63
2024-02-10T03:00:35.531Z,19.62
2024-02-10T03:00:56.229Z,19.59
2024-02-10T03:01:16.953Z,19.64
2024-02-10T03:01:37.625Z,19.62
2024-02-10T03:01:58.328Z,19.64
2024-02-10T03:02:19.005Z,19.63
2024-02-10T03:02:39.640Z,19.59
2024-02-10T03:03:00.241Z,19.64
2024-02-10T03:03:20.918Z,19.62
2024-02-10T03:03:41.602Z,19.64
2024-02-10T03:04:02.287Z,19.66
2024-02-10T03:04:22.946Z,19.59
2024-02-10T03:04:43.579Z,19.59
2024-02-10T03:05:04.376Z,19.66
2024-02-10T03:05:25.139Z,19.59
2024-02-10T03:05:45.750Z,19.64
2024-02-10T03:06:06.384Z,19.62
2024-02-10T03:06:27.002Z,19.59
2024-02-10T03:06:47.627Z,19.59
2024-02-10T03:07:08.261Z,19.63
2024-02-10T03:07:28.929Z,19.64
2024-02-10T03:07:49.637Z,19.66
2024-02-10T03:08:10.235Z,19.64
2024-02-10T03:08:30.855Z,19.63
2024-02-10T03:08:51.472Z,19.66
2024-02-10T03:09:12.082Z,19.62
2024-02-10T03:09:32.703Z,19.59
2024-02-10T03:09:53.328Z,19.58
2024-02-10T03:10:13.993Z,19.59
2024-02-10T03:10:34.629Z,19.62
2024-02-10T03:10:55.294Z,19.58
2024-02-10T03:11:15.903Z,19.62
2024-02-10T03:11:36.533Z,19.59
2024-02-10T03:11:57.121Z,19.59
2024-02-10T03:12:17.744Z,19.67
2024-02-10T03:12:38.378Z,19.62
2024-02-10T03:12:58.981Z,19.63
2024-02-10T03:13:19.638Z,19.64
2024-02-10T03:13:40.315Z,19.62
2024-02-10T03:14:01.089Z,19.63
2024-02-10T03:14:21.725Z,19.62
2024-02-10T03:14:42.345Z,19.58
2024-02-10T03:15:02.965Z,19.63
2024-02-10T03:15:23.562Z,19.58
2024-02-10T03:15:44.177Z,19.62
2024-02-10T03:16:04.819Z,19.62
2024-02-10T03:16:25.439Z,19.59
2024-02-10T03:16:46.052Z,19.58
2024-02-10T03:17:06.649Z,19.63
2024-02-10T03:17:27.252Z,19.59
2024-02-10T03:17:48.381Z,19.63
2024-02-10T03:18:08.670Z,19.58
2024-02-10T03:18:29.318Z,19.63
2024-02-10T03:18:50.003Z,19.58
2024-02-10T03:19:10.642Z,19.64
2024-02-10T03:19:31.299Z,19.62
2024-02-10T03:19:51.913Z,19.62
2024-02-10T03:20:12.518Z,19.62
2024-02-10T03:20:33.136Z,19.58
2024-02-10T03:20:53.763Z,19.58
2024-02-10T03:21:14.357Z,19.63
2024-02-10T03:21:34.986Z,19.62
2024-02-10T03:21:55.585Z,19.63
2024-02-10T03:22:16.209Z,19.63
2024-02-10T03:22:36.844Z,19.56
2024-02-10T03:22:57.490Z,19.56
2024-02-10T03:23:18.136Z,19.58
2024-02-10T03:23:38.763Z,19.62
2024-02-10T03:23:59.392Z,19.59
2024-02-10T03:24:19.999Z,19.62
2024-02-10T03:24:40.624Z,19.59
2024-02-10T03:25:01.230Z,19.56
2024-02-10T03:25:21.895Z,19.63
2024-02-10T03:25:42.495Z,19.62
2024-02-10T03:26:03.155Z,19.63
2024-02-10T03:26:23.730Z,19.56
2024-02-10T03:26:44.345Z,19.59
2024-02-10T03:27:05.011Z,19.63
2024-02-10T03:27:25.636Z,19.59
2024-02-10T03:27:46.251Z,19.58
2024-02-10T03:28:06.882Z,19.59
2024-02-10T03:28:27.506Z,19.58
2024-02-10T03:28:48.147Z,19.62
2024-02-10T03:29:08.760Z,19.59
2024-02-10T03:29:29.362Z,19.58
2024-02-10T03:29:49.984Z,19.58
2024-02-10T03:30:10.588Z,19.59
2024-02-10T03:30:31.203Z,19.58
2024-02-10T03:30:51.801Z,19.58
2024-02-10T03:31:12.547Z,19.63
2024-02-10T03:31:33.224Z,19.63
2024-02-10T03:31:53.968Z,19.59
2024-02-10T03:32:14.613Z,19.59
2024-02-10T03:32:35.266Z,19.59
2024-02-10T03:32:56.058Z,19.59
2024-02-10T03:33:16.665Z,19.59
2024-02-10T03:33:37.468Z,19.59
2024-02-10T03:33:58.329Z,19.63
2024-02-10T03:34:19.080Z,19.59
2024-02-10T03:34:40.293Z,19.59
2024-02-10T03:35:00.672Z,19.58
2024-02-10T03:35:21.482Z,19.56
2024-02-10T03:35:42.206Z,19.58
2024-02-10T03:36:02.806Z,19.55
2024-02-10T03:36:23.416Z,19.62
2024-02-10T03:36:44.024Z,19.58
2024-02-10T03:37:04.643Z,19.64
2024-02-10T03:37:25.279Z,19.58
2024-02-10T03:37:45.914Z,19.62
2024-02-10T03:38:06.505Z,19.63
2024-02-10T03:38:27.106Z,19.62
2024-02-10T03:38:47.707Z,19.56
2024-02-10T03:39:08.325Z,19.56
2024-02-10T03:39:28.940Z,19.59
2024-02-10T03:39:49.549Z,19.54
2024-02-10T03:40:10.186Z,19.63
2024-02-10T03:40:30.868Z,19.58
2024-02-10T03:40:51.530Z,19.58
2024-02-10T03:41:12.149Z,19.62
2024-02-10T03:41:32.746Z,19.58
2024-02-10T03:41:53.363Z,19.56
2024-02-10T03:42:13.981Z,19.58
2024-02-10T03:42:34.607Z,19.63
2024-02-10T03:42:55.215Z,19.59
2024-02-10T03:43:15.852Z,19.56
2024-02-10T03:43:36.501Z,19.56
2024-02-10T03:43:57.173Z,19.58
2024-02-10T03:44:20.308Z,19.58
2024-02-10T03:44:38.578Z,19.56
2024-02-10T03:44:59.177Z,19.62
2024-02-10T03:45:20.201Z,19.56
2024-02-10T03:45:40.318Z,19.56
2024-02-10T03:46:00.938Z,19.56
2024-02-10T03:46:21.587Z,19.58
2024-02-10T03:46:42.260Z,19.62
2024-02-10T03:47:02.978Z,19.55
2024-02-10T03:47:23.590Z,19.58
2024-02-10T03:47:44.720Z,19.63
2024-02-10T03:48:05.438Z,19.59
2024-02-10T03:48:25.752Z,19.59
2024-02-10T03:48:46.538Z,19.55
2024-02-10T03:49:07.183Z,19.58
2024-02-10T03:49:27.878Z,19.56
2024-02-10T03:49:48.519Z,19.56
2024-02-10T03:50:09.108Z,19.56
2024-02-10T03:50:29.741Z,19.59
2024-02-10T03:50:50.361Z,19.59
2024-02-10T03:51:10.976Z,19.58
2024-02-10T03:51:31.608Z,19.55
2024-02-10T03:51:52.229Z,19.58
2024-02-10T03:52:12.916Z,19.55
2024-02-10T03:52:33.581Z,19.58
2024-02-10T03:52:54.373Z,19.58
2024-02-10T03:53:15.087Z,19.55
2024-02-10T03:53:35.674Z,19.58
2024-02-10T03:53:56.282Z,19.59
2024-02-10T03:54:16.892Z,19.56
2024-02-10T03:54:37.506Z,19.55
2024-02-10T03:54:58.115Z,19.63
2024-02-10T03:55:18.811Z,19.55
2024-02-10T03:55:39.647Z,19.62
2024-02-10T03:56:00.346Z,19.59
2024-02-10T03:56:20.994Z,19.59
2024-02-10T03:56:41.619Z,19.58
2024-02-10T03:57:02.232Z,19.54
2024-02-10T03:57:22.972Z,19.56
2024-02-10T03:57:43.628Z,19.58
2024-02-10T03:58:04.263Z,19.56
2024-02-10T03:58:24.889Z,19.62
2024-02-10T03:58:45.535Z,19.59
2024-02-10T03:59:06.148Z,19.58
2024-02-10T03:59:26.753Z,19.55
2024-02-10T03:59:47.362Z,19.59
2024-02-10T04:00:07.998Z,19.55
2024-02-10T04:00:28.606Z,19.58
2024-02-10T04:00:49.273Z,19.56
2024-02-10T04:01:09.891Z,19.63
2024-02-10T04:01:30.588Z,19.58
2024-02-10T04:01:51.226Z,19.59
2024-02-10T04:02:11.862Z,19.58
2024-02-10T04:02:32.450Z,19.56
2024-02-10T04:02:53.064Z,19.56
2024-02-10T04:03:13.688Z,19.59
2024-02-10T04:03:34.341Z,19.55
2024-02-10T04:03:54.971Z,19.56
2024-02-10T04:04:15.795Z,19.56
2024-02-10T04:04:36.605Z,19.58
2024-02-10T04:04:57.337Z,19.58
2024-02-10T04:05:18.051Z,19.59
2024-02-10T04:05:38.715Z,19.56
2024-02-10T04:05:59.350Z,19.55
2024-02-10T04:06:20.408Z,19.55
2024-02-10T04:06:40.729Z,19.58
2024-02-10T04:07:01.334Z,19.55
2024-02-10T04:07:22.110Z,19.56
2024-02-10T04:07:42.803Z,19.56
2024-02-10T04:08:03.405Z,19.58
2024-02-10T04:08:24.022Z,19.55
2024-02-10T04:08:44.623Z,19.58
2024-02-10T04:09:05.234Z,19.54
2024-02-10T04:09:25.847Z,19.54
2024-02-10T04:09:46.481Z,19.54
2024-02-10T04:10:07.088Z,19.54
2024-02-10T04:10:27.720Z,19.56
2024-02-10T04:10:48.356Z,19.59
2024-02-10T04:11:08.948Z,19.59
2024-02-10T04:11:29.594Z,19.54
2024-02-10T04:11:51.475Z,19.58
2024-02-10T04:12:11.138Z,19.55
2024-02-10T04:12:31.766Z,19.59
2024-02-10T04:12:52.376Z,19.55
2024-02-10T04:13:13.094Z,19.55
2024-02-10T04:13:33.718Z,19.52
2024-02-10T04:13:54.407Z,19.58
2024-02-10T04:14:15.034Z,19.55
2024-02-10T04:14:35.652Z,19.58
2024-02-10T04:14:56.278Z,19.54
2024-02-10T04:15:16.906Z,19.58
2024-02-10T04:15:37.528Z,19.55
2024-02-10T04:15:58.150Z,19.54
2024-02-10T04:16:18.800Z,19.58
2024-02-10T04:16:39.452Z,19.58
2024-02-10T04:17:00.103Z,19.56
2024-02-10T04:17:20.754Z,19.56
2024-02-10T04:17:41.389Z,19.56
2024-02-10T04:18:02.001Z,19.55
2024-02-10T04:18:22.673Z,19.55
2024-02-10T04:18:43.352Z,19.55
2024-02-10T04:19:04.002Z,19.54
2024-02-10T04:19:24.651Z,19.58
2024-02-10T04:19:45.367Z,19.55
2024-02-10T04:20:06.054Z,19.58
2024-02-10T04:20:27.060Z,19.55
2024-02-10T04:20:47.253Z,19.56
2024-02-10T04:21:07.843Z,19.55
2024-02-10T04:21:28.457Z,19.54
2024-02-10T04:21:49.094Z,19.58
2024-02-10T04:22:09.875Z,19.56
2024-02-10T04:22:30.557Z,19.55
2024-02-10T04:22:51.184Z,19.58
2024-02-10T04:23:11.790Z,19.55
2024-02-10T04:23:32.385Z,19.59
2024-02-10T04:23:52.997Z,19.56
2024-02-10T04:24:13.616Z,19.55
2024-02-10T04:24:34.241Z,19.58
2024-02-10T04:24:54.882Z,19.55
2024-02-10T04:25:15.515Z,19.55
2024-02-10T04:25:36.190Z,19.54
2024-02-10T04:25:56.821Z,19.51